METAR Data
IDs: Format: Raw Decoded Include TAF

Data at: 0829 UTC 07 Dec 2021

KLCQ 070815Z AUTO 25003KT 1/2SM FG OVC002 17/17 A3002 RMK AO2
KLCQ 070755Z AUTO 27004KT 1 3/4SM BR OVC002 17/17 A3003 RMK AO2 LTG DSNT E
KLCQ 070735Z AUTO 23004KT 3SM BR OVC002 17/17 A3002 RMK AO2
KLCQ 070715Z AUTO 18004KT 1 1/2SM BR OVC002 16/16 A3003 RMK AO2
KLCQ 070655Z AUTO 00000KT 3/4SM BR OVC002 17/17 A3003 RMK AO2
KLCQ 070635Z AUTO 19003KT 3SM BR OVC002 17/17 A3004 RMK AO2
KLCQ 070615Z AUTO 26003KT 7SM OVC002 17/17 A3005 RMK AO2
KLCQ 070555Z AUTO 30006KT 10SM OVC002 17/17 A3006 RMK AO2
KLCQ 070535Z AUTO 26003KT 10SM BKN002 17/17 A3005 RMK AO2
KLCQ 070515Z AUTO 00000KT 10SM CLR 15/15 A3005 RMK AO2
KLCQ 070455Z AUTO 00000KT 10SM CLR 16/15 A3007 RMK AO2
KLCQ 070435Z AUTO 00000KT 10SM CLR 16/15 A3008 RMK AO2
KLCQ 070415Z AUTO 00000KT 10SM CLR 16/15 A3008 RMK AO2
KLCQ 070355Z AUTO 00000KT 10SM CLR 16/15 A3009 RMK AO2
KLCQ 070335Z AUTO 00000KT 10SM CLR 16/15 A3009 RMK AO2
KLCQ 070315Z AUTO 21003KT 10SM CLR 16/15 A3010 RMK AO2
KLCQ 070255Z AUTO 00000KT 10SM CLR 17/15 A3009 RMK AO2
KLCQ 070235Z AUTO 00000KT 10SM CLR 17/15 A3010 RMK AO2
KLCQ 070215Z AUTO 00000KT 10SM CLR 18/16 A3009 RMK AO2
KLCQ 070155Z AUTO 25003KT 10SM CLR 17/15 A3009 RMK AO2
KLCQ 070135Z AUTO 28003KT 10SM CLR 17/15 A3009 RMK AO2
KLCQ 070115Z AUTO 28003KT 10SM CLR 18/15 A3009 RMK AO2
KLCQ 070055Z AUTO 23004KT 10SM CLR 18/15 A3007 RMK AO2 LTG DSNT SE
KLCQ 070035Z AUTO 25004KT 10SM CLR 19/15 A3007 RMK AO2
KLCQ 070015Z AUTO 21004KT 10SM CLR 19/15 A3007 RMK AO2
KLCQ 062355Z AUTO 22003KT 10SM CLR 20/15 A3006 RMK AO2
KLCQ 062335Z AUTO 21004KT 10SM CLR 20/15 A3005 RMK AO2
KLCQ 062315Z AUTO 20003KT 10SM CLR 20/15 A3005 RMK AO2
KLCQ 062255Z AUTO 21003KT 10SM CLR 20/15 A3005 RMK AO2
KLCQ 062235Z AUTO 23004KT 10SM CLR 21/15 A3006 RMK AO2
KLCQ 062215Z AUTO 26006KT 10SM CLR 21/15 A3006 RMK AO2 LTG DSNT E
KLCQ 062155Z AUTO 25009KT 10SM CLR 22/15 A3006 RMK AO2
KLCQ 062135Z AUTO 26008KT 10SM CLR 22/15 A3005 RMK AO2
KLCQ 062115Z AUTO 26006G15KT 10SM SCT047 23/15 A3005 RMK AO2
KLCQ 062055Z AUTO 26011KT 10SM SCT047 24/14 A3005 RMK AO2
KLCQ 062035Z AUTO 25009KT 10SM SCT047 25/14 A3005 RMK AO2
KLCQ 062015Z AUTO 28008KT 10SM SCT043 25/15 A3004 RMK AO2
KLCQ 061955Z AUTO 26008KT 10SM SCT043 25/15 A3004 RMK AO2
KLCQ 061935Z AUTO 25009KT 10SM SCT043 24/15 A3005 RMK AO2
KLCQ 061915Z AUTO 26009G15KT 10SM SCT041 25/15 A3005 RMK AO2
KLCQ 061855Z AUTO 25013G17KT 10SM SCT041 25/15 A3006 RMK AO2
KLCQ 061835Z AUTO 23008G14KT 10SM SCT039 25/15 A3006 RMK AO2
KLCQ 061815Z AUTO 24010KT 10SM BKN039 24/15 A3006 RMK AO2
KLCQ 061755Z AUTO 23010G14KT 10SM BKN037 25/15 A3007 RMK AO2
KLCQ 061735Z AUTO 25012G15KT 10SM BKN033 25/15 A3008 RMK AO2
KLCQ 061715Z AUTO 25010G14KT 10SM SCT031 25/16 A3008 RMK AO2
KLCQ 061655Z AUTO 23009KT 10SM CLR 23/16 A3009 RMK AO2
KLCQ 061635Z AUTO 23008KT 10SM CLR 23/16 A3010 RMK AO2
KLCQ 061615Z AUTO 25008KT 10SM SCT037 23/17 A3012 RMK AO2
KLCQ 061555Z AUTO 23007KT 10SM SCT037 22/17 A3013 RMK AO2
KLCQ 061535Z AUTO 24008KT 10SM CLR 21/17 A3014 RMK AO2
KLCQ 061515Z AUTO 22006KT 10SM CLR 20/16 A3014 RMK AO2 LTG DSNT W
KLCQ 061455Z AUTO 20006KT 10SM CLR 19/16 A3014 RMK AO2
KLCQ 061435Z AUTO 21003KT 10SM CLR 18/16 A3014 RMK AO2
KLCQ 061415Z AUTO 20004KT 10SM CLR 16/15 A3014 RMK AO2
KLCQ 061355Z AUTO 00000KT 10SM CLR 15/15 A3013 RMK AO2
KLCQ 061335Z AUTO 18003KT 10SM CLR 13/13 A3012 RMK AO2
KLCQ 061315Z AUTO 00000KT 10SM CLR 11/11 A3013 RMK AO2
KLCQ 061255Z AUTO 00000KT 5SM BR SCT002 10/10 A3013 RMK AO2
KLCQ 061235Z AUTO 00000KT M1/4SM FG OVC002 10/10 A3012 RMK AO2
KLCQ 061215Z AUTO 00000KT M1/4SM FG OVC002 10/10 A3013 RMK AO2
KLCQ 061155Z AUTO 00000KT 1 1/4SM BR OVC002 10/10 A3012 RMK AO2
KLCQ 061135Z AUTO 00000KT 3/4SM BR OVC002 10/10 A3012 RMK AO2
KLCQ 061115Z AUTO 00000KT 7SM OVC002 10/10 A3012 RMK AO2
KLCQ 061055Z AUTO 00000KT 1/4SM FG OVC002 10/10 A3011 RMK AO2
KLCQ 061035Z AUTO 00000KT 1/4SM FG OVC002 10/10 A3011 RMK AO2
KLCQ 061015Z AUTO 1/4SM FG OVC002 10/10 A3010 RMK AO2
KLCQ 060955Z AUTO 00000KT 3/4SM BR OVC002 10/10 A3010 RMK AO2 VIS 1/4V5
KLCQ 060935Z AUTO 00000KT 1/2SM FG BKN002 10/10 A3011 RMK AO2
KLCQ 060915Z AUTO 00000KT 5SM BR CLR 09/09 A3010 RMK AO2
KLCQ 060855Z AUTO 11003KT 7SM CLR 10/10 A3011 RMK AO2
KLCQ 060835Z AUTO 00000KT 4SM BR SCT002 10/10 A3011 RMK AO2
KLCQ 060815Z AUTO 00000KT 5SM BR SCT002 10/10 A3012 RMK AO2
KLCQ 060755Z AUTO 00000KT 5SM BR CLR 10/10 A3012 RMK AO2
KLCQ 060735Z AUTO 7SM CLR 10/09 A3011 RMK AO2
KLCQ 060715Z AUTO 00000KT 10SM CLR 10/10 A3012 RMK AO2
KLCQ 060655Z AUTO 00000KT 10SM CLR 10/10 A3012 RMK AO2
KLCQ 060635Z AUTO 11003KT 7SM CLR 10/10 A3012 RMK AO2
KLCQ 060615Z AUTO 00000KT 10SM CLR 10/10 A3013 RMK AO2
KLCQ 060555Z AUTO 00000KT 7SM CLR 11/11 A3013 RMK AO2
KLCQ 060535Z AUTO 00000KT 7SM CLR 11/11 A3013 RMK AO2
KLCQ 060515Z AUTO 00000KT 7SM CLR 11/11 A3014 RMK AO2
KLCQ 060455Z AUTO 00000KT 10SM CLR 11/11 A3015 RMK AO2
KLCQ 060435Z AUTO 00000KT 10SM CLR 11/11 A3016 RMK AO2
KLCQ 060415Z AUTO 00000KT 10SM CLR 12/11 A3016 RMK AO2
KLCQ 060355Z AUTO 00000KT 10SM CLR 12/12 A3016 RMK AO2
KLCQ 060335Z AUTO 00000KT 10SM CLR 13/12 A3016 RMK AO2
KLCQ 060315Z AUTO 00000KT 10SM CLR 13/12 A3017 RMK AO2
KLCQ 060255Z AUTO 00000KT 10SM CLR 13/12 A3016 RMK AO2
KLCQ 060235Z AUTO 01003KT 10SM CLR 13/12 A3016 RMK AO2
KLCQ 060215Z AUTO 02003KT 10SM CLR 13/12 A3015 RMK AO2
KLCQ 060155Z AUTO 00000KT 10SM CLR 12/12 A3015 RMK AO2
KLCQ 060135Z AUTO 00000KT 10SM CLR 13/12 A3015 RMK AO2
KLCQ 060115Z AUTO 00000KT 10SM CLR 13/12 A3014 RMK AO2
KLCQ 060055Z AUTO 00000KT 10SM CLR 13/12 A3014 RMK AO2
KLCQ 060035Z AUTO 00000KT 10SM CLR 13/13 A3013 RMK AO2
KLCQ 060015Z AUTO 00000KT 10SM CLR 14/13 A3013 RMK AO2
KLCQ 052355Z AUTO 00000KT 10SM CLR 15/13 A3013 RMK AO2
KLCQ 052335Z AUTO 00000KT 10SM CLR 15/13 A3013 RMK AO2
KLCQ 052315Z AUTO 00000KT 10SM CLR 16/13 A3012 RMK AO2
KLCQ 052255Z AUTO 00000KT 10SM CLR 17/13 A3012 RMK AO2
KLCQ 052235Z AUTO 00000KT 10SM CLR 18/14 A3011 RMK AO2
KLCQ 052215Z AUTO 00000KT 10SM CLR 20/12 A3011 RMK AO2
KLCQ 052155Z AUTO 23003KT 10SM CLR 22/12 A3011 RMK AO2
KLCQ 052135Z AUTO 00000KT 10SM CLR 22/12 A3010 RMK AO2
KLCQ 052115Z AUTO 24003KT 10SM CLR 22/12 A3010 RMK AO2
KLCQ 052055Z AUTO 00000KT 10SM CLR 22/12 A3010 RMK AO2
KLCQ 052035Z AUTO 00000KT 10SM CLR 22/12 A3011 RMK AO2